createdAt,value
2023-05-12T00:01:39.732Z,6.00
2023-05-12T00:04:07.161Z,5.75
2023-05-12T00:06:37.177Z,5.93
2023-05-12T00:09:04.810Z,6.35
2023-05-12T00:11:31.923Z,6.38
2023-05-12T00:13:58.921Z,6.70
2023-05-12T00:16:25.906Z,5.78
2023-05-12T00:18:53.034Z,6.07
2023-05-12T00:21:20.203Z,6.55
2023-05-12T00:23:47.157Z,6.07
2023-05-12T00:26:14.165Z,5.90
2023-05-12T00:28:41.175Z,6.07
2023-05-12T00:31:08.121Z,5.78
2023-05-12T00:33:35.116Z,5.85
2023-05-12T00:36:03.912Z,5.85
2023-05-12T00:38:30.939Z,6.20
2023-05-12T00:40:57.900Z,5.70
2023-05-12T00:43:24.850Z,5.70
2023-05-12T00:45:51.897Z,6.20
2023-05-12T00:48:19.376Z,5.88
2023-05-12T00:50:46.420Z,5.30
2023-05-12T00:53:13.623Z,5.45
2023-05-12T00:55:40.779Z,6.00
2023-05-12T00:58:08.486Z,5.68
2023-05-12T01:00:35.737Z,5.82
2023-05-12T01:03:03.089Z,5.43
2023-05-12T01:05:40.080Z,5.40
2023-05-12T01:08:08.127Z,5.63
2023-05-12T01:10:35.201Z,5.75
2023-05-12T01:13:02.101Z,5.45
2023-05-12T01:15:32.448Z,5.55
2023-05-12T01:18:03.469Z,4.90
2023-05-12T01:22:59.085Z,5.85
2023-05-12T01:25:30.150Z,5.57
2023-05-12T01:30:25.158Z,5.13
2023-05-12T01:32:53.112Z,5.85
2023-05-12T01:35:20.073Z,4.80
2023-05-12T01:37:47.087Z,5.22
2023-05-12T01:40:14.221Z,5.25
2023-05-12T01:42:42.771Z,5.28
2023-05-12T01:45:10.390Z,5.20
2023-05-12T01:47:37.339Z,5.30
2023-05-12T01:50:04.497Z,5.20
2023-05-12T01:52:31.527Z,4.88
2023-05-12T01:54:58.479Z,5.05
2023-05-12T01:57:25.403Z,4.85
2023-05-12T01:59:52.340Z,4.97
2023-05-12T02:02:19.328Z,4.68
2023-05-12T02:04:46.261Z,4.80
2023-05-12T02:07:13.351Z,4.40
2023-05-12T02:09:40.287Z,4.35
2023-05-12T02:12:08.365Z,5.03
2023-05-12T02:14:35.433Z,4.60
2023-05-12T02:17:03.103Z,4.22
2023-05-12T02:19:30.186Z,4.35
2023-05-12T02:21:57.151Z,4.57
2023-05-12T02:24:24.126Z,4.63
2023-05-12T02:26:51.178Z,4.55
2023-05-12T02:29:19.053Z,4.18
2023-05-12T02:31:46.210Z,4.30
2023-05-12T02:34:13.274Z,4.55
2023-05-12T02:36:40.368Z,4.25
2023-05-12T02:39:07.336Z,4.60
2023-05-12T02:41:34.519Z,4.40
2023-05-12T02:44:01.566Z,4.15
2023-05-12T02:46:28.829Z,4.00
2023-05-12T02:48:55.766Z,4.00
2023-05-12T02:51:23.418Z,4.30
2023-05-12T02:53:50.415Z,3.70
2023-05-12T02:56:18.210Z,3.72
2023-05-12T02:58:46.076Z,3.45
2023-05-12T03:01:13.086Z,4.13
2023-05-12T03:03:40.418Z,3.65
2023-05-12T03:06:07.976Z,3.65
2023-05-12T03:08:34.940Z,3.88
2023-05-12T03:11:02.142Z,3.90
2023-05-12T03:13:29.025Z,3.67
2023-05-12T03:15:56.227Z,3.53
2023-05-12T03:18:23.215Z,3.50
2023-05-12T03:20:50.285Z,3.75
2023-05-12T03:23:17.311Z,3.70
2023-05-12T03:25:44.241Z,3.70
2023-05-12T03:28:11.858Z,3.88
2023-05-12T03:30:38.897Z,3.72
2023-05-12T03:33:05.842Z,3.67
2023-05-12T03:35:32.833Z,3.45
2023-05-12T03:37:59.767Z,4.00
2023-05-12T03:40:27.258Z,3.65
2023-05-12T03:42:54.225Z,4.03
2023-05-12T03:45:21.673Z,3.75
2023-05-12T03:47:48.747Z,3.63
2023-05-12T03:50:18.661Z,3.60
2023-05-12T03:52:45.700Z,3.28
2023-05-12T03:55:12.837Z,3.58
2023-05-12T03:57:39.851Z,3.30
2023-05-12T04:00:07.336Z,3.20
2023-05-12T04:02:34.399Z,3.20
2023-05-12T04:05:01.628Z,3.15
2023-05-12T04:07:28.629Z,3.30
2023-05-12T04:09:55.857Z,3.58
2023-05-12T04:12:22.886Z,3.13
2023-05-12T04:14:50.036Z,3.15
2023-05-12T04:17:19.762Z,3.42
2023-05-12T04:19:47.166Z,3.25
2023-05-12T04:22:14.100Z,3.13
2023-05-12T04:24:41.096Z,3.28
2023-05-12T04:27:08.146Z,3.10
2023-05-12T04:29:35.228Z,2.88
2023-05-12T04:32:02.181Z,3.25
2023-05-12T04:34:29.182Z,3.00
2023-05-12T04:36:56.135Z,3.25
2023-05-12T04:39:23.085Z,3.45
2023-05-12T04:41:50.415Z,3.35
2023-05-12T04:44:17.447Z,3.08
2023-05-12T04:46:44.516Z,3.45
2023-05-12T04:49:11.759Z,3.30
2023-05-12T04:51:43.619Z,3.53
2023-05-12T04:54:10.793Z,3.63
2023-05-12T04:56:37.928Z,3.47
2023-05-12T04:59:04.986Z,3.35
2023-05-12T05:01:32.096Z,3.50
2023-05-12T05:03:59.042Z,6.80
2023-05-12T05:06:26.285Z,6.57
2023-05-12T05:08:53.621Z,5.70
2023-05-12T05:11:22.161Z,4.60
2023-05-12T05:13:49.299Z,4.25
2023-05-12T05:16:16.340Z,3.80
2023-05-12T05:18:46.858Z,3.80
2023-05-12T05:21:17.233Z,4.13
2023-05-12T05:23:44.178Z,3.40
2023-05-12T05:26:11.168Z,3.60
2023-05-12T05:28:40.246Z,3.42
2023-05-12T05:31:07.846Z,3.53
2023-05-12T05:33:34.789Z,3.10
2023-05-12T05:36:02.185Z,2.72
2023-05-12T05:38:29.246Z,3.00
2023-05-12T05:40:56.330Z,3.08
2023-05-12T05:43:23.439Z,3.08
2023-05-12T05:45:51.068Z,3.00
2023-05-12T05:48:18.719Z,2.30
2023-05-12T05:50:45.915Z,2.72
2023-05-12T05:53:12.890Z,2.42
2023-05-12T05:55:40.061Z,2.55
2023-05-12T05:58:07.108Z,2.80
2023-05-12T06:00:34.174Z,2.88
2023-05-12T06:03:01.696Z,3.38
2023-05-12T06:05:28.901Z,3.20
2023-05-12T06:07:56.025Z,3.88
2023-05-12T06:10:23.123Z,2.97
2023-05-12T06:12:50.822Z,3.67
2023-05-12T06:15:18.607Z,3.95
2023-05-12T06:17:45.983Z,2.83
2023-05-12T06:20:13.894Z,2.70
2023-05-12T06:22:42.755Z,2.72
2023-05-12T06:25:09.892Z,2.38
2023-05-12T06:27:37.291Z,2.92
2023-05-12T06:30:04.719Z,2.58
2023-05-12T06:32:31.765Z,3.55
2023-05-12T06:34:58.845Z,3.67
2023-05-12T06:37:25.919Z,4.13
2023-05-12T06:39:52.957Z,2.88
2023-05-12T06:42:20.087Z,3.10
2023-05-12T06:44:47.084Z,3.22
2023-05-12T06:47:14.152Z,3.15
2023-05-12T06:49:41.372Z,3.35
2023-05-12T06:52:08.503Z,2.80
2023-05-12T06:54:35.531Z,3.22
2023-05-12T06:57:02.509Z,2.40
2023-05-12T06:59:29.744Z,2.67
2023-05-12T07:01:56.916Z,2.47
2023-05-12T07:04:25.566Z,2.60
2023-05-12T07:06:53.989Z,2.50
2023-05-12T07:09:21.042Z,2.60
2023-05-12T07:11:48.451Z,3.45
2023-05-12T07:14:15.563Z,2.55
2023-05-12T07:16:42.694Z,2.05
2023-05-12T07:19:10.219Z,2.42
2023-05-12T07:21:37.892Z,2.20
2023-05-12T07:24:06.769Z,2.10
2023-05-12T07:26:34.537Z,2.08
2023-05-12T07:29:01.722Z,2.35
2023-05-12T07:31:29.173Z,2.47
2023-05-12T07:33:56.558Z,2.55
2023-05-12T07:36:23.761Z,2.22
2023-05-12T07:38:50.844Z,2.67
2023-05-12T07:41:20.429Z,2.40
2023-05-12T07:43:47.479Z,2.55
2023-05-12T07:46:15.087Z,2.13
2023-05-12T07:48:42.416Z,2.10
2023-05-12T07:51:10.068Z,2.30
2023-05-12T07:53:37.218Z,2.00
2023-05-12T07:56:04.564Z,2.17
2023-05-12T07:58:31.636Z,1.80
2023-05-12T08:01:00.759Z,1.85
2023-05-12T08:03:28.092Z,1.70
2023-05-12T08:05:55.124Z,1.85
2023-05-12T08:08:22.678Z,2.40
2023-05-12T08:10:49.858Z,3.08
2023-05-12T08:13:17.387Z,3.55
2023-05-12T08:15:44.483Z,2.45
2023-05-12T08:18:11.808Z,2.50
2023-05-12T08:20:38.920Z,2.20
2023-05-12T08:23:06.086Z,6.38
2023-05-12T08:25:35.368Z,10.45
2023-05-12T08:28:02.751Z,5.78
2023-05-12T08:30:30.023Z,4.25
2023-05-12T08:32:58.128Z,3.72
2023-05-12T08:35:27.761Z,2.67
2023-05-12T08:37:55.029Z,2.90
2023-05-12T08:40:24.015Z,2.78
2023-05-12T08:43:19.370Z,3.15
2023-05-12T08:45:47.472Z,2.53
2023-05-12T08:48:16.278Z,2.40
2023-05-12T08:50:45.644Z,2.78
2023-05-12T08:53:16.628Z,4.03
2023-05-12T08:58:40.814Z,3.42
2023-05-12T09:01:09.071Z,2.67
2023-05-12T09:03:36.705Z,4.70
2023-05-12T09:06:06.174Z,4.40
2023-05-12T09:08:35.264Z,4.45
2023-05-12T09:11:03.053Z,3.55
2023-05-12T09:13:48.452Z,4.38
2023-05-12T09:16:19.601Z,3.40
2023-05-12T09:18:49.449Z,3.58
2023-05-12T09:21:16.586Z,3.15
2023-05-12T09:24:16.086Z,2.78
2023-05-12T09:26:46.666Z,3.30
2023-05-12T09:29:23.923Z,2.72
2023-05-12T09:31:59.160Z,2.65
2023-05-12T09:34:36.059Z,3.00
2023-05-12T09:37:06.891Z,3.30
2023-05-12T09:39:34.574Z,3.45
2023-05-12T09:42:01.809Z,3.55
2023-05-12T09:44:31.589Z,3.00
2023-05-12T09:47:07.591Z,2.80
2023-05-12T09:49:34.604Z,2.60
2023-05-12T09:52:02.019Z,2.55
2023-05-12T09:54:30.566Z,2.65
2023-05-12T09:57:02.939Z,2.35
2023-05-12T09:59:40.011Z,2.40
2023-05-12T10:02:09.974Z,2.60
2023-05-12T10:04:51.529Z,2.63
2023-05-12T10:07:23.036Z,2.25
2023-05-12T10:09:50.746Z,2.40
2023-05-12T10:12:18.289Z,2.65
2023-05-12T10:14:47.314Z,2.30
2023-05-12T10:17:15.072Z,2.40
2023-05-12T10:19:42.817Z,2.17
2023-05-12T10:22:16.291Z,2.80
2023-05-12T10:24:44.925Z,2.70
2023-05-12T10:27:13.653Z,2.90
2023-05-12T10:29:41.643Z,2.80
2023-05-12T10:32:08.858Z,2.50
2023-05-12T10:34:41.268Z,2.40
2023-05-12T10:37:11.712Z,2.60
2023-05-12T10:39:53.221Z,2.40
2023-05-12T10:42:27.365Z,2.40
2023-05-12T10:44:56.939Z,2.47
2023-05-12T10:47:27.319Z,2.38
2023-05-12T10:50:01.209Z,2.85
2023-05-12T10:52:28.913Z,2.38
2023-05-12T10:55:04.550Z,3.00
2023-05-12T10:57:34.908Z,2.28
2023-05-12T11:00:04.439Z,2.00
2023-05-12T11:02:34.996Z,2.95
2023-05-12T11:05:10.971Z,2.88
2023-05-12T11:07:39.634Z,2.30
2023-05-12T11:10:08.149Z,2.53
2023-05-12T11:12:36.666Z,2.35
2023-05-12T11:15:05.992Z,3.80
2023-05-12T11:17:33.561Z,3.30
2023-05-12T11:20:02.029Z,3.53
2023-05-12T11:22:29.453Z,2.40
2023-05-12T11:24:56.719Z,2.25
2023-05-12T11:27:24.263Z,2.78
2023-05-12T11:30:00.022Z,2.67
2023-05-12T11:32:27.874Z,2.38
2023-05-12T11:34:55.287Z,2.50
2023-05-12T11:37:23.204Z,2.35
2023-05-12T11:39:50.467Z,3.40
2023-05-12T11:42:20.095Z,3.33
2023-05-12T11:44:49.822Z,1.83
2023-05-12T11:47:19.369Z,2.20
2023-05-12T11:49:48.577Z,2.67
2023-05-12T11:52:16.628Z,2.15
2023-05-12T11:54:52.196Z,2.20
2023-05-12T11:57:30.838Z,2.30
2023-05-12T12:00:04.649Z,2.53
2023-05-12T12:02:33.915Z,5.03
2023-05-12T12:05:01.865Z,6.40
2023-05-12T12:07:34.254Z,3.13
2023-05-12T12:10:15.534Z,2.85
2023-05-12T12:12:43.841Z,2.55
2023-05-12T12:15:11.662Z,2.35
2023-05-12T12:17:40.455Z,2.38
2023-05-12T12:20:13.665Z,2.30
2023-05-12T12:22:40.948Z,2.85
2023-05-12T12:25:08.676Z,2.75
2023-05-12T12:27:35.826Z,2.50
2023-05-12T12:30:03.594Z,2.72
2023-05-12T12:32:30.905Z,2.70
2023-05-12T12:35:03.335Z,2.90
2023-05-12T12:37:30.582Z,2.63
2023-05-12T12:39:57.795Z,2.65
2023-05-12T12:42:25.362Z,2.33
2023-05-12T12:44:52.988Z,2.30
2023-05-12T12:47:20.253Z,2.30
2023-05-12T12:49:47.756Z,2.22
2023-05-12T12:52:15.265Z,2.35
2023-05-12T12:54:42.302Z,1.98
2023-05-12T12:57:09.582Z,2.30
2023-05-12T12:59:36.618Z,2.45
2023-05-12T13:02:04.086Z,2.60
2023-05-12T13:04:31.311Z,2.60
2023-05-12T13:06:58.702Z,2.50
2023-05-12T13:09:25.874Z,3.80
2023-05-12T13:11:53.474Z,4.60
2023-05-12T13:14:22.239Z,2.60
2023-05-12T13:16:49.535Z,4.97
2023-05-12T13:19:16.830Z,4.47
2023-05-12T13:21:44.902Z,7.43
2023-05-12T13:24:12.705Z,5.45
2023-05-12T13:26:39.970Z,6.90
2023-05-12T13:29:07.407Z,5.50
2023-05-12T13:31:36.896Z,12.02
2023-05-12T13:34:04.129Z,6.45
2023-05-12T13:36:34.641Z,5.32
2023-05-12T13:39:03.240Z,8.07
2023-05-12T13:41:30.644Z,6.60
2023-05-12T13:43:57.810Z,5.20
2023-05-12T13:46:25.323Z,5.03
2023-05-12T13:48:53.751Z,4.53
2023-05-12T13:51:21.108Z,4.32
2023-05-12T13:53:48.432Z,3.63
2023-05-12T13:56:16.966Z,3.28
2023-05-12T13:58:45.196Z,4.15
2023-05-12T14:01:12.834Z,4.57
2023-05-12T14:03:40.758Z,4.78
2023-05-12T14:06:08.055Z,4.57
2023-05-12T14:08:36.401Z,3.85
2023-05-12T14:11:03.937Z,3.92
2023-05-12T14:13:31.946Z,3.45
2023-05-12T14:15:59.082Z,3.08
2023-05-12T14:18:26.438Z,3.53
2023-05-12T14:20:53.678Z,3.60
2023-05-12T14:23:20.903Z,3.20
2023-05-12T14:25:48.132Z,3.05
2023-05-12T14:28:15.339Z,7.68
2023-05-12T14:30:43.842Z,6.82
2023-05-12T14:33:11.214Z,3.75
2023-05-12T14:35:38.454Z,3.83
2023-05-12T14:38:05.466Z,3.92
2023-05-12T14:40:32.641Z,4.00
2023-05-12T14:43:00.445Z,3.50
2023-05-12T14:45:27.643Z,3.50
2023-05-12T14:47:55.286Z,3.88
2023-05-12T14:50:23.468Z,3.38
2023-05-12T14:52:50.808Z,3.90
2023-05-12T14:55:18.106Z,3.50
2023-05-12T14:57:45.702Z,6.07
2023-05-12T15:00:15.504Z,8.70
2023-05-12T15:02:44.584Z,4.57
2023-05-12T15:05:13.796Z,6.80
2023-05-12T15:07:40.926Z,6.15
2023-05-12T15:10:08.698Z,5.80
2023-05-12T15:12:36.153Z,5.00
2023-05-12T15:15:05.499Z,4.20
2023-05-12T15:17:32.851Z,3.10
2023-05-12T15:19:59.941Z,3.20
2023-05-12T15:22:27.295Z,4.10
2023-05-12T15:24:54.507Z,4.28
2023-05-12T15:27:21.743Z,5.07
2023-05-12T15:29:49.409Z,7.60
2023-05-12T15:32:16.709Z,5.38
2023-05-12T15:34:44.017Z,4.15
2023-05-12T15:37:12.027Z,6.50
2023-05-12T15:39:39.315Z,10.57
2023-05-12T15:42:07.394Z,5.70
2023-05-12T15:44:34.926Z,5.18
2023-05-12T15:47:02.327Z,7.60
2023-05-12T15:49:29.770Z,5.25
2023-05-12T15:51:56.881Z,6.63
2023-05-12T15:54:23.988Z,5.72
2023-05-12T15:56:51.018Z,5.03
2023-05-12T15:59:18.758Z,3.80
2023-05-12T16:01:46.755Z,3.42
2023-05-12T16:04:14.041Z,3.42
2023-05-12T16:06:41.181Z,3.33
2023-05-12T16:09:08.652Z,2.80
2023-05-12T16:11:36.039Z,5.53
2023-05-12T16:14:03.370Z,5.13
2023-05-12T16:16:34.392Z,3.33
2023-05-12T16:21:28.565Z,3.30
2023-05-12T16:23:55.888Z,3.45
2023-05-12T16:26:23.855Z,2.85
2023-05-12T16:28:51.390Z,3.65
2023-05-12T16:31:24.023Z,2.60
2023-05-12T16:33:51.213Z,2.70
2023-05-12T16:36:19.635Z,2.45
2023-05-12T16:38:47.027Z,2.80
2023-05-12T16:41:14.287Z,2.25
2023-05-12T16:43:41.409Z,2.40
2023-05-12T16:46:08.844Z,1.85
2023-05-12T16:48:36.612Z,2.47
2023-05-12T16:51:06.558Z,2.38
2023-05-12T16:53:34.175Z,2.40
2023-05-12T16:56:01.621Z,2.53
2023-05-12T16:58:32.851Z,2.60
2023-05-12T17:01:01.508Z,2.20
2023-05-12T17:03:29.424Z,2.33
2023-05-12T17:05:56.779Z,1.95
2023-05-12T17:08:24.986Z,2.53
2023-05-12T17:10:52.215Z,2.08
2023-05-12T17:13:19.410Z,2.80
2023-05-12T17:15:47.481Z,2.10
2023-05-12T17:18:14.645Z,2.72
2023-05-12T17:20:42.022Z,2.00
2023-05-12T17:23:09.574Z,2.35
2023-05-12T17:25:37.153Z,1.90
2023-05-12T17:28:04.969Z,2.10
2023-05-12T17:30:33.251Z,2.22
2023-05-12T17:33:00.881Z,2.10
2023-05-12T17:35:28.389Z,2.58
2023-05-12T17:37:55.872Z,2.60
2023-05-12T17:40:23.562Z,2.45
2023-05-12T17:42:50.730Z,2.08
2023-05-12T17:45:19.672Z,1.98
2023-05-12T17:47:48.368Z,2.00
2023-05-12T17:50:17.048Z,2.13
2023-05-12T17:52:44.247Z,1.77
2023-05-12T17:55:11.707Z,1.83
2023-05-12T17:57:39.067Z,1.60
2023-05-12T18:00:10.705Z,2.17
2023-05-12T18:02:38.646Z,1.88
2023-05-12T18:05:06.726Z,2.53
2023-05-12T18:07:34.675Z,2.08
2023-05-12T18:10:02.183Z,2.80
2023-05-12T18:12:29.557Z,2.58
2023-05-12T18:14:57.202Z,3.95
2023-05-12T18:17:24.678Z,3.15
2023-05-12T18:19:51.926Z,2.60
2023-05-12T18:22:19.281Z,2.85
2023-05-12T18:24:46.728Z,2.85
2023-05-12T18:27:14.005Z,3.30
2023-05-12T18:29:41.486Z,2.58
2023-05-12T18:32:09.615Z,3.00
2023-05-12T18:34:36.889Z,3.38
2023-05-12T18:37:04.028Z,3.95
2023-05-12T18:39:31.479Z,3.15
2023-05-12T18:41:59.215Z,4.15
2023-05-12T18:44:26.500Z,4.30
2023-05-12T18:46:53.863Z,3.75
2023-05-12T18:49:21.269Z,3.58
2023-05-12T18:51:48.292Z,3.00
2023-05-12T18:54:15.414Z,3.65
2023-05-12T18:56:42.628Z,3.28
2023-05-12T18:59:10.099Z,3.20
2023-05-12T19:01:38.233Z,3.65
2023-05-12T19:04:07.063Z,3.17
2023-05-12T19:06:34.987Z,3.20
2023-05-12T19:09:02.434Z,3.58
2023-05-12T19:11:30.165Z,2.60
2023-05-12T19:13:57.975Z,2.67
2023-05-12T19:16:25.255Z,2.72
2023-05-12T19:18:52.472Z,2.95
2023-05-12T19:21:19.963Z,2.70
2023-05-12T19:23:47.222Z,2.20
2023-05-12T19:26:14.307Z,2.38
2023-05-12T19:28:41.511Z,2.10
2023-05-12T19:31:08.925Z,2.00
2023-05-12T19:33:36.488Z,1.73
2023-05-12T19:36:04.107Z,1.80
2023-05-12T19:38:31.225Z,2.20
2023-05-12T19:40:58.793Z,1.85
2023-05-12T19:43:27.404Z,2.10
2023-05-12T19:45:56.339Z,1.75
2023-05-12T19:48:23.877Z,1.90
2023-05-12T19:50:51.234Z,1.65
2023-05-12T19:53:20.317Z,1.75
2023-05-12T19:55:47.832Z,1.88
2023-05-12T19:58:15.521Z,1.67
2023-05-12T20:00:42.865Z,3.00
2023-05-12T20:03:10.495Z,3.00
2023-05-12T20:05:38.199Z,3.40
2023-05-12T20:08:06.188Z,3.67
2023-05-12T20:10:33.456Z,2.55
2023-05-12T20:13:06.467Z,2.67
2023-05-12T20:15:34.882Z,2.80
2023-05-12T20:18:02.287Z,2.42
2023-05-12T20:20:29.692Z,2.10
2023-05-12T20:22:57.288Z,2.50
2023-05-12T20:25:27.638Z,2.20
2023-05-12T20:27:57.894Z,1.90
2023-05-12T20:30:25.591Z,2.47
2023-05-12T20:32:55.658Z,2.15
2023-05-12T20:35:23.982Z,2.33
2023-05-12T20:37:51.836Z,2.58
2023-05-12T20:40:20.881Z,3.83
2023-05-12T20:42:49.613Z,2.60
2023-05-12T20:45:17.632Z,3.90
2023-05-12T20:47:44.996Z,2.20
2023-05-12T20:50:13.183Z,1.92
2023-05-12T20:52:42.024Z,1.70
2023-05-12T20:55:10.634Z,1.88
2023-05-12T20:57:38.196Z,2.08
2023-05-12T21:00:06.050Z,1.70
2023-05-12T21:02:34.342Z,1.70
2023-05-12T21:05:04.646Z,1.63
2023-05-12T21:07:32.648Z,2.22
2023-05-12T21:10:00.983Z,1.80
2023-05-12T21:12:28.663Z,1.58
2023-05-12T21:14:56.196Z,1.33
2023-05-12T21:17:23.514Z,1.60
2023-05-12T21:19:51.234Z,1.83
2023-05-12T21:22:21.604Z,1.52
2023-05-12T21:24:50.445Z,1.65
2023-05-12T21:27:24.955Z,1.90
2023-05-12T21:29:52.283Z,1.73
2023-05-12T21:32:19.428Z,1.48
2023-05-12T21:34:46.660Z,1.60
2023-05-12T21:37:14.384Z,1.30
2023-05-12T21:39:41.615Z,1.73
2023-05-12T21:42:09.323Z,1.48
2023-05-12T21:44:36.503Z,1.60
2023-05-12T21:47:04.746Z,1.55
2023-05-12T21:49:33.351Z,1.38
2023-05-12T21:52:01.893Z,1.30
2023-05-12T21:54:32.466Z,1.48
2023-05-12T21:57:00.638Z,1.67
2023-05-12T21:59:29.545Z,1.52
2023-05-12T22:01:56.842Z,1.85
2023-05-12T22:04:24.102Z,1.88
2023-05-12T22:06:51.352Z,1.60
2023-05-12T22:09:18.955Z,1.55
2023-05-12T22:11:46.922Z,1.67
2023-05-12T22:14:14.033Z,1.50
2023-05-12T22:16:42.511Z,1.98
2023-05-12T22:19:10.635Z,1.92
2023-05-12T22:21:37.748Z,1.42
2023-05-12T22:24:05.025Z,1.40
2023-05-12T22:26:31.986Z,1.50
2023-05-12T22:28:59.196Z,1.80
2023-05-12T22:31:26.361Z,1.50
2023-05-12T22:33:53.589Z,1.35
2023-05-12T22:36:20.716Z,1.50
2023-05-12T22:38:47.831Z,1.60
2023-05-12T22:41:14.858Z,1.67
2023-05-12T22:43:41.768Z,1.60
2023-05-12T22:46:10.155Z,1.70
2023-05-12T22:48:39.530Z,1.70
2023-05-12T22:51:07.103Z,1.60
2023-05-12T22:53:36.499Z,1.50
2023-05-12T22:56:04.226Z,1.63
2023-05-12T22:58:31.866Z,1.50
2023-05-12T23:00:59.109Z,1.70
2023-05-12T23:03:26.270Z,1.75
2023-05-12T23:05:53.283Z,1.50
2023-05-12T23:08:20.246Z,1.50
2023-05-12T23:10:47.210Z,1.60
2023-05-12T23:13:14.209Z,1.83
2023-05-12T23:15:41.203Z,1.50
2023-05-12T23:18:08.304Z,1.70
2023-05-12T23:20:35.856Z,1.50
2023-05-12T23:23:02.857Z,1.50
2023-05-12T23:25:29.887Z,1.80
2023-05-12T23:27:56.868Z,1.60
2023-05-12T23:30:24.046Z,1.50
2023-05-12T23:32:51.405Z,1.70
2023-05-12T23:35:18.692Z,1.63
2023-05-12T23:37:45.642Z,1.63
2023-05-12T23:40:15.581Z,1.92
2023-05-12T23:42:42.532Z,1.67
2023-05-12T23:45:09.962Z,1.58
2023-05-12T23:47:36.959Z,1.92
2023-05-12T23:50:04.159Z,2.00
2023-05-12T23:52:31.275Z,1.60
2023-05-12T23:54:58.181Z,1.80
2023-05-12T23:57:25.274Z,1.50
2023-05-12T23:59:52.264Z,1.60
